sensor_id;sensor_type;location;lat;lon;timestamp;P1;durP1;ratioP1;P2;durP2;ratioP2
2860;SDS011;1438;50.922;6.704;2022-08-24T00:00:47;3.70;;;2.50;;
2860;SDS011;1438;50.922;6.704;2022-08-24T00:03:13;4.67;;;2.33;;
2860;SDS011;1438;50.922;6.704;2022-08-24T00:05:38;4.13;;;2.30;;
2860;SDS011;1438;50.922;6.704;2022-08-24T00:08:04;5.20;;;2.40;;
2860;SDS011;1438;50.922;6.704;2022-08-24T00:10:30;4.43;;;2.40;;
2860;SDS011;1438;50.922;6.704;2022-08-24T00:12:55;3.83;;;2.10;;
2860;SDS011;1438;50.922;6.704;2022-08-24T00:15:22;8.43;;;2.40;;
2860;SDS011;1438;50.922;6.704;2022-08-24T00:17:48;5.40;;;1.67;;
2860;SDS011;1438;50.922;6.704;2022-08-24T00:20:15;5.50;;;2.30;;
2860;SDS011;1438;50.922;6.704;2022-08-24T00:22:41;6.23;;;2.73;;
2860;SDS011;1438;50.922;6.704;2022-08-24T00:25:08;3.97;;;3.00;;
2860;SDS011;1438;50.922;6.704;2022-08-24T00:27:35;4.43;;;2.30;;
2860;SDS011;1438;50.922;6.704;2022-08-24T00:30:06;5.60;;;2.37;;
2860;SDS011;1438;50.922;6.704;2022-08-24T00:32:35;2.13;;;1.93;;
2860;SDS011;1438;50.922;6.704;2022-08-24T00:35:02;4.20;;;2.47;;
2860;SDS011;1438;50.922;6.704;2022-08-24T00:37:29;4.53;;;2.57;;
2860;SDS011;1438;50.922;6.704;2022-08-24T00:39:55;3.10;;;2.63;;
2860;SDS011;1438;50.922;6.704;2022-08-24T00:42:23;6.20;;;2.67;;
2860;SDS011;1438;50.922;6.704;2022-08-24T00:44:49;2.30;;;2.07;;
2860;SDS011;1438;50.922;6.704;2022-08-24T00:47:18;5.40;;;2.73;;
2860;SDS011;1438;50.922;6.704;2022-08-24T00:49:57;2.97;;;2.10;;
2860;SDS011;1438;50.922;6.704;2022-08-24T00:52:45;2.67;;;2.27;;
2860;SDS011;1438;50.922;6.704;2022-08-24T00:55:22;5.30;;;2.50;;
2860;SDS011;1438;50.922;6.704;2022-08-24T00:57:54;2.80;;;2.20;;
2860;SDS011;1438;50.922;6.704;2022-08-24T01:00:25;6.53;;;2.27;;
2860;SDS011;1438;50.922;6.704;2022-08-24T01:02:56;3.90;;;2.60;;
2860;SDS011;1438;50.922;6.704;2022-08-24T01:05:28;4.27;;;2.53;;
2860;SDS011;1438;50.922;6.704;2022-08-24T01:07:55;3.07;;;2.53;;
2860;SDS011;1438;50.922;6.704;2022-08-24T01:10:23;3.53;;;2.40;;
2860;SDS011;1438;50.922;6.704;2022-08-24T01:12:54;4.00;;;2.33;;
2860;SDS011;1438;50.922;6.704;2022-08-24T01:15:22;4.40;;;2.20;;
2860;SDS011;1438;50.922;6.704;2022-08-24T01:17:48;5.40;;;2.67;;
2860;SDS011;1438;50.922;6.704;2022-08-24T01:20:33;4.50;;;2.77;;
2860;SDS011;1438;50.922;6.704;2022-08-24T01:25:58;3.97;;;2.30;;
2860;SDS011;1438;50.922;6.704;2022-08-24T01:28:24;7.37;;;2.30;;
2860;SDS011;1438;50.922;6.704;2022-08-24T01:30:51;13.23;;;3.03;;
2860;SDS011;1438;50.922;6.704;2022-08-24T01:33:24;5.60;;;2.10;;
2860;SDS011;1438;50.922;6.704;2022-08-24T01:36:08;4.50;;;2.27;;
2860;SDS011;1438;50.922;6.704;2022-08-24T01:38:46;7.07;;;2.23;;
2860;SDS011;1438;50.922;6.704;2022-08-24T01:41:13;3.73;;;2.43;;
2860;SDS011;1438;50.922;6.704;2022-08-24T01:43:42;6.30;;;2.20;;
2860;SDS011;1438;50.922;6.704;2022-08-24T01:46:07;3.50;;;1.97;;
2860;SDS011;1438;50.922;6.704;2022-08-24T01:48:34;2.23;;;2.03;;
2860;SDS011;1438;50.922;6.704;2022-08-24T01:51:00;3.27;;;2.60;;
2860;SDS011;1438;50.922;6.704;2022-08-24T01:53:26;16.93;;;3.40;;
2860;SDS011;1438;50.922;6.704;2022-08-24T01:55:52;5.23;;;2.43;;
2860;SDS011;1438;50.922;6.704;2022-08-24T01:58:17;4.80;;;2.30;;
2860;SDS011;1438;50.922;6.704;2022-08-24T02:00:44;6.57;;;2.93;;
2860;SDS011;1438;50.922;6.704;2022-08-24T02:03:10;3.93;;;2.40;;
2860;SDS011;1438;50.922;6.704;2022-08-24T02:05:35;7.40;;;2.90;;
2860;SDS011;1438;50.922;6.704;2022-08-24T02:08:01;3.60;;;2.73;;
2860;SDS011;1438;50.922;6.704;2022-08-24T02:10:27;6.13;;;2.60;;
2860;SDS011;1438;50.922;6.704;2022-08-24T02:12:54;4.00;;;2.40;;
2860;SDS011;1438;50.922;6.704;2022-08-24T02:15:23;3.07;;;2.20;;
2860;SDS011;1438;50.922;6.704;2022-08-24T02:17:53;4.13;;;2.40;;
2860;SDS011;1438;50.922;6.704;2022-08-24T02:20:20;4.33;;;2.53;;
2860;SDS011;1438;50.922;6.704;2022-08-24T02:22:46;2.90;;;2.17;;
2860;SDS011;1438;50.922;6.704;2022-08-24T02:25:13;6.37;;;2.70;;
2860;SDS011;1438;50.922;6.704;2022-08-24T02:27:39;5.47;;;3.03;;
2860;SDS011;1438;50.922;6.704;2022-08-24T02:30:05;7.60;;;2.40;;
2860;SDS011;1438;50.922;6.704;2022-08-24T02:32:31;4.43;;;2.23;;
2860;SDS011;1438;50.922;6.704;2022-08-24T02:34:57;6.80;;;2.37;;
2860;SDS011;1438;50.922;6.704;2022-08-24T02:37:23;3.13;;;2.57;;
2860;SDS011;1438;50.922;6.704;2022-08-24T02:39:48;5.63;;;2.37;;
2860;SDS011;1438;50.922;6.704;2022-08-24T02:42:14;5.80;;;2.30;;
2860;SDS011;1438;50.922;6.704;2022-08-24T02:44:40;6.97;;;2.40;;
2860;SDS011;1438;50.922;6.704;2022-08-24T02:47:05;4.80;;;2.83;;
2860;SDS011;1438;50.922;6.704;2022-08-24T02:49:31;4.07;;;2.40;;
2860;SDS011;1438;50.922;6.704;2022-08-24T02:51:57;4.47;;;2.57;;
2860;SDS011;1438;50.922;6.704;2022-08-24T02:54:23;2.83;;;2.50;;
2860;SDS011;1438;50.922;6.704;2022-08-24T02:56:48;10.83;;;2.60;;
2860;SDS011;1438;50.922;6.704;2022-08-24T02:59:14;3.33;;;2.53;;
2860;SDS011;1438;50.922;6.704;2022-08-24T03:01:40;3.70;;;2.43;;
2860;SDS011;1438;50.922;6.704;2022-08-24T03:04:06;4.60;;;2.47;;
2860;SDS011;1438;50.922;6.704;2022-08-24T03:06:32;6.60;;;2.50;;
2860;SDS011;1438;50.922;6.704;2022-08-24T03:08:57;2.40;;;2.20;;
2860;SDS011;1438;50.922;6.704;2022-08-24T03:11:24;6.20;;;2.40;;
2860;SDS011;1438;50.922;6.704;2022-08-24T03:13:49;3.73;;;3.00;;
2860;SDS011;1438;50.922;6.704;2022-08-24T03:16:15;6.23;;;2.77;;
2860;SDS011;1438;50.922;6.704;2022-08-24T03:18:41;5.40;;;2.80;;
2860;SDS011;1438;50.922;6.704;2022-08-24T03:21:07;3.67;;;3.13;;
2860;SDS011;1438;50.922;6.704;2022-08-24T03:23:34;3.60;;;2.60;;
2860;SDS011;1438;50.922;6.704;2022-08-24T03:26:00;5.70;;;3.20;;
2860;SDS011;1438;50.922;6.704;2022-08-24T03:28:27;4.57;;;2.80;;
2860;SDS011;1438;50.922;6.704;2022-08-24T03:30:53;3.90;;;2.50;;
2860;SDS011;1438;50.922;6.704;2022-08-24T03:33:19;4.50;;;2.50;;
2860;SDS011;1438;50.922;6.704;2022-08-24T03:35:45;3.67;;;3.00;;
2860;SDS011;1438;50.922;6.704;2022-08-24T03:38:11;6.10;;;2.40;;
2860;SDS011;1438;50.922;6.704;2022-08-24T03:40:37;6.57;;;3.10;;
2860;SDS011;1438;50.922;6.704;2022-08-24T03:43:04;6.63;;;3.00;;
2860;SDS011;1438;50.922;6.704;2022-08-24T03:45:30;4.40;;;3.00;;
2860;SDS011;1438;50.922;6.704;2022-08-24T03:47:56;6.27;;;2.90;;
2860;SDS011;1438;50.922;6.704;2022-08-24T03:50:22;4.30;;;2.77;;
2860;SDS011;1438;50.922;6.704;2022-08-24T03:52:49;4.77;;;2.83;;
2860;SDS011;1438;50.922;6.704;2022-08-24T03:55:15;5.50;;;2.67;;
2860;SDS011;1438;50.922;6.704;2022-08-24T03:57:41;6.97;;;3.00;;
2860;SDS011;1438;50.922;6.704;2022-08-24T04:00:08;5.10;;;3.73;;
2860;SDS011;1438;50.922;6.704;2022-08-24T04:02:35;2.67;;;2.27;;
2860;SDS011;1438;50.922;6.704;2022-08-24T04:05:01;7.53;;;3.17;;
2860;SDS011;1438;50.922;6.704;2022-08-24T04:07:28;6.30;;;3.27;;
2860;SDS011;1438;50.922;6.704;2022-08-24T04:09:55;6.63;;;3.63;;
2860;SDS011;1438;50.922;6.704;2022-08-24T04:12:21;4.40;;;2.60;;
2860;SDS011;1438;50.922;6.704;2022-08-24T04:14:49;5.00;;;3.60;;
2860;SDS011;1438;50.922;6.704;2022-08-24T04:17:15;3.67;;;2.90;;
2860;SDS011;1438;50.922;6.704;2022-08-24T04:19:41;7.33;;;3.00;;
2860;SDS011;1438;50.922;6.704;2022-08-24T04:22:21;5.30;;;3.00;;
2860;SDS011;1438;50.922;6.704;2022-08-24T04:24:48;5.37;;;2.90;;
2860;SDS011;1438;50.922;6.704;2022-08-24T04:27:17;4.03;;;2.80;;
2860;SDS011;1438;50.922;6.704;2022-08-24T04:29:42;3.87;;;2.50;;
2860;SDS011;1438;50.922;6.704;2022-08-24T04:32:08;5.60;;;2.80;;
2860;SDS011;1438;50.922;6.704;2022-08-24T04:34:34;4.43;;;2.80;;
2860;SDS011;1438;50.922;6.704;2022-08-24T04:37:00;4.53;;;2.70;;
2860;SDS011;1438;50.922;6.704;2022-08-24T04:39:26;3.63;;;2.60;;
2860;SDS011;1438;50.922;6.704;2022-08-24T04:41:52;6.17;;;2.60;;
2860;SDS011;1438;50.922;6.704;2022-08-24T04:44:17;7.17;;;3.47;;
2860;SDS011;1438;50.922;6.704;2022-08-24T04:46:43;7.63;;;3.57;;
2860;SDS011;1438;50.922;6.704;2022-08-24T04:49:08;5.10;;;3.33;;
2860;SDS011;1438;50.922;6.704;2022-08-24T04:51:34;5.80;;;3.10;;
2860;SDS011;1438;50.922;6.704;2022-08-24T04:54:00;7.90;;;3.10;;
2860;SDS011;1438;50.922;6.704;2022-08-24T04:56:26;6.13;;;4.00;;
2860;SDS011;1438;50.922;6.704;2022-08-24T04:58:52;4.33;;;2.70;;
2860;SDS011;1438;50.922;6.704;2022-08-24T05:01:21;6.67;;;3.37;;
2860;SDS011;1438;50.922;6.704;2022-08-24T05:03:49;9.37;;;3.20;;
2860;SDS011;1438;50.922;6.704;2022-08-24T05:06:18;5.87;;;2.93;;
2860;SDS011;1438;50.922;6.704;2022-08-24T05:08:46;4.13;;;3.33;;
2860;SDS011;1438;50.922;6.704;2022-08-24T05:11:13;6.60;;;3.07;;
2860;SDS011;1438;50.922;6.704;2022-08-24T05:13:41;5.60;;;3.13;;
2860;SDS011;1438;50.922;6.704;2022-08-24T05:16:07;5.03;;;3.10;;
2860;SDS011;1438;50.922;6.704;2022-08-24T05:18:34;5.20;;;3.50;;
2860;SDS011;1438;50.922;6.704;2022-08-24T05:21:00;6.70;;;3.37;;
2860;SDS011;1438;50.922;6.704;2022-08-24T05:23:26;6.67;;;3.00;;
2860;SDS011;1438;50.922;6.704;2022-08-24T05:26:02;6.30;;;3.67;;
2860;SDS011;1438;50.922;6.704;2022-08-24T05:28:32;3.83;;;2.83;;
2860;SDS011;1438;50.922;6.704;2022-08-24T05:31:06;5.50;;;3.40;;
2860;SDS011;1438;50.922;6.704;2022-08-24T05:33:42;6.10;;;2.80;;
2860;SDS011;1438;50.922;6.704;2022-08-24T05:39:05;6.50;;;2.93;;
2860;SDS011;1438;50.922;6.704;2022-08-24T05:41:32;6.67;;;3.20;;
2860;SDS011;1438;50.922;6.704;2022-08-24T05:43:59;4.13;;;3.07;;
2860;SDS011;1438;50.922;6.704;2022-08-24T05:46:25;4.53;;;3.10;;
2860;SDS011;1438;50.922;6.704;2022-08-24T05:48:52;6.37;;;3.73;;
2860;SDS011;1438;50.922;6.704;2022-08-24T05:51:18;6.57;;;3.63;;
2860;SDS011;1438;50.922;6.704;2022-08-24T05:53:44;4.13;;;2.53;;
2860;SDS011;1438;50.922;6.704;2022-08-24T05:56:11;7.00;;;3.57;;
2860;SDS011;1438;50.922;6.704;2022-08-24T05:58:38;5.13;;;3.40;;
2860;SDS011;1438;50.922;6.704;2022-08-24T06:01:08;9.40;;;3.47;;
2860;SDS011;1438;50.922;6.704;2022-08-24T06:03:37;6.60;;;3.60;;
2860;SDS011;1438;50.922;6.704;2022-08-24T06:06:03;10.23;;;4.23;;
2860;SDS011;1438;50.922;6.704;2022-08-24T06:08:31;9.67;;;3.90;;
2860;SDS011;1438;50.922;6.704;2022-08-24T06:10:59;6.87;;;3.77;;
2860;SDS011;1438;50.922;6.704;2022-08-24T06:13:26;6.07;;;3.37;;
2860;SDS011;1438;50.922;6.704;2022-08-24T06:16:13;4.67;;;3.50;;
2860;SDS011;1438;50.922;6.704;2022-08-24T06:18:38;4.67;;;3.37;;
2860;SDS011;1438;50.922;6.704;2022-08-24T06:21:08;9.97;;;4.80;;
2860;SDS011;1438;50.922;6.704;2022-08-24T06:23:35;7.40;;;3.73;;
2860;SDS011;1438;50.922;6.704;2022-08-24T06:26:03;8.60;;;3.60;;
2860;SDS011;1438;50.922;6.704;2022-08-24T06:28:48;7.50;;;3.27;;
2860;SDS011;1438;50.922;6.704;2022-08-24T06:31:14;3.77;;;2.70;;
2860;SDS011;1438;50.922;6.704;2022-08-24T06:33:40;7.43;;;3.47;;
2860;SDS011;1438;50.922;6.704;2022-08-24T06:36:06;9.03;;;3.93;;
2860;SDS011;1438;50.922;6.704;2022-08-24T06:38:32;4.10;;;3.43;;
2860;SDS011;1438;50.922;6.704;2022-08-24T06:40:57;8.63;;;3.43;;
2860;SDS011;1438;50.922;6.704;2022-08-24T06:43:23;8.17;;;3.67;;
2860;SDS011;1438;50.922;6.704;2022-08-24T06:45:49;4.37;;;3.20;;
2860;SDS011;1438;50.922;6.704;2022-08-24T06:48:16;6.60;;;4.20;;
2860;SDS011;1438;50.922;6.704;2022-08-24T06:50:42;11.20;;;4.80;;
2860;SDS011;1438;50.922;6.704;2022-08-24T06:53:08;10.43;;;4.90;;
2860;SDS011;1438;50.922;6.704;2022-08-24T06:55:42;8.50;;;4.63;;
2860;SDS011;1438;50.922;6.704;2022-08-24T06:58:09;11.70;;;6.43;;
2860;SDS011;1438;50.922;6.704;2022-08-24T07:00:34;16.60;;;5.97;;
2860;SDS011;1438;50.922;6.704;2022-08-24T07:03:00;18.77;;;7.17;;
2860;SDS011;1438;50.922;6.704;2022-08-24T07:05:26;15.77;;;6.60;;
2860;SDS011;1438;50.922;6.704;2022-08-24T07:07:52;12.63;;;6.40;;
2860;SDS011;1438;50.922;6.704;2022-08-24T07:10:17;14.87;;;7.20;;
2860;SDS011;1438;50.922;6.704;2022-08-24T07:12:43;14.77;;;6.00;;
2860;SDS011;1438;50.922;6.704;2022-08-24T07:15:08;19.13;;;7.27;;
2860;SDS011;1438;50.922;6.704;2022-08-24T07:17:34;17.10;;;7.00;;
2860;SDS011;1438;50.922;6.704;2022-08-24T07:20:00;20.30;;;7.50;;
2860;SDS011;1438;50.922;6.704;2022-08-24T07:22:26;22.80;;;7.17;;
2860;SDS011;1438;50.922;6.704;2022-08-24T07:24:52;30.03;;;7.00;;
2860;SDS011;1438;50.922;6.704;2022-08-24T07:27:18;16.40;;;6.70;;
2860;SDS011;1438;50.922;6.704;2022-08-24T07:29:43;21.80;;;7.13;;
2860;SDS011;1438;50.922;6.704;2022-08-24T07:32:10;13.90;;;5.63;;
2860;SDS011;1438;50.922;6.704;2022-08-24T07:34:36;14.63;;;5.33;;
2860;SDS011;1438;50.922;6.704;2022-08-24T07:37:02;18.30;;;6.50;;
2860;SDS011;1438;50.922;6.704;2022-08-24T07:39:29;17.70;;;6.27;;
2860;SDS011;1438;50.922;6.704;2022-08-24T07:41:55;18.17;;;6.60;;
2860;SDS011;1438;50.922;6.704;2022-08-24T07:44:21;15.17;;;6.67;;
2860;SDS011;1438;50.922;6.704;2022-08-24T07:46:47;24.10;;;7.70;;
2860;SDS011;1438;50.922;6.704;2022-08-24T07:49:13;12.43;;;7.00;;
2860;SDS011;1438;50.922;6.704;2022-08-24T07:51:38;17.03;;;8.27;;
2860;SDS011;1438;50.922;6.704;2022-08-24T07:54:04;15.50;;;7.03;;
2860;SDS011;1438;50.922;6.704;2022-08-24T07:56:30;16.40;;;6.97;;
2860;SDS011;1438;50.922;6.704;2022-08-24T07:58:56;16.17;;;6.87;;
2860;SDS011;1438;50.922;6.704;2022-08-24T08:01:22;12.30;;;6.97;;
2860;SDS011;1438;50.922;6.704;2022-08-24T08:03:48;18.00;;;6.30;;
2860;SDS011;1438;50.922;6.704;2022-08-24T08:06:14;14.70;;;6.10;;
2860;SDS011;1438;50.922;6.704;2022-08-24T08:08:41;10.57;;;6.23;;
2860;SDS011;1438;50.922;6.704;2022-08-24T08:11:09;9.47;;;6.27;;
2860;SDS011;1438;50.922;6.704;2022-08-24T08:13:35;11.43;;;6.00;;
2860;SDS011;1438;50.922;6.704;2022-08-24T08:16:01;18.73;;;7.03;;
2860;SDS011;1438;50.922;6.704;2022-08-24T08:18:28;13.60;;;7.63;;
2860;SDS011;1438;50.922;6.704;2022-08-24T08:20:54;24.80;;;6.63;;
2860;SDS011;1438;50.922;6.704;2022-08-24T08:23:20;17.37;;;6.20;;
2860;SDS011;1438;50.922;6.704;2022-08-24T08:26:05;17.80;;;5.63;;
2860;SDS011;1438;50.922;6.704;2022-08-24T08:28:32;15.80;;;6.30;;
2860;SDS011;1438;50.922;6.704;2022-08-24T08:30:59;16.37;;;5.43;;
2860;SDS011;1438;50.922;6.704;2022-08-24T08:33:26;14.43;;;6.20;;
2860;SDS011;1438;50.922;6.704;2022-08-24T08:35:55;11.27;;;5.40;;
2860;SDS011;1438;50.922;6.704;2022-08-24T08:38:33;10.47;;;4.80;;
2860;SDS011;1438;50.922;6.704;2022-08-24T08:54:10;8.13;;;4.10;;
2860;SDS011;1438;50.922;6.704;2022-08-24T08:56:45;13.63;;;4.30;;
2860;SDS011;1438;50.922;6.704;2022-08-24T09:07:38;7.77;;;3.73;;
2860;SDS011;1438;50.922;6.704;2022-08-24T09:10:20;7.47;;;3.30;;
2860;SDS011;1438;50.922;6.704;2022-08-24T09:24:03;4.97;;;3.20;;
2860;SDS011;1438;50.922;6.704;2022-08-24T09:34:56;5.30;;;2.57;;
2860;SDS011;1438;50.922;6.704;2022-08-24T09:56:37;3.80;;;2.40;;
2860;SDS011;1438;50.922;6.704;2022-08-24T10:02:24;6.27;;;2.70;;
2860;SDS011;1438;50.922;6.704;2022-08-24T10:05:20;8.67;;;3.33;;
2860;SDS011;1438;50.922;6.704;2022-08-24T10:15:46;7.63;;;2.87;;
2860;SDS011;1438;50.922;6.704;2022-08-24T10:21:08;6.20;;;3.00;;
2860;SDS011;1438;50.922;6.704;2022-08-24T10:32:19;4.93;;;2.90;;
2860;SDS011;1438;50.922;6.704;2022-08-24T10:35:09;7.87;;;3.00;;
2860;SDS011;1438;50.922;6.704;2022-08-24T10:37:40;7.47;;;3.50;;
2860;SDS011;1438;50.922;6.704;2022-08-24T10:43:26;4.23;;;3.37;;
2860;SDS011;1438;50.922;6.704;2022-08-24T10:54:40;8.00;;;2.57;;
2860;SDS011;1438;50.922;6.704;2022-08-24T10:57:07;4.67;;;2.80;;
2860;SDS011;1438;50.922;6.704;2022-08-24T10:59:39;5.03;;;2.20;;
2860;SDS011;1438;50.922;6.704;2022-08-24T11:04:35;6.47;;;2.57;;
2860;SDS011;1438;50.922;6.704;2022-08-24T11:07:04;3.33;;;2.60;;
2860;SDS011;1438;50.922;6.704;2022-08-24T11:09:46;4.50;;;2.67;;
2860;SDS011;1438;50.922;6.704;2022-08-24T11:12:27;4.30;;;2.60;;
2860;SDS011;1438;50.922;6.704;2022-08-24T11:14:59;4.93;;;2.30;;
2860;SDS011;1438;50.922;6.704;2022-08-24T11:17:33;3.10;;;2.37;;
2860;SDS011;1438;50.922;6.704;2022-08-24T11:19:59;4.23;;;3.03;;
2860;SDS011;1438;50.922;6.704;2022-08-24T11:27:50;4.20;;;2.37;;
2860;SDS011;1438;50.922;6.704;2022-08-24T11:32:57;4.80;;;2.60;;
2860;SDS011;1438;50.922;6.704;2022-08-24T11:35:36;3.17;;;2.40;;
2860;SDS011;1438;50.922;6.704;2022-08-24T11:38:23;3.20;;;2.43;;
2860;SDS011;1438;50.922;6.704;2022-08-24T11:48:35;4.77;;;2.10;;
2860;SDS011;1438;50.922;6.704;2022-08-24T11:54:23;4.07;;;2.20;;
2860;SDS011;1438;50.922;6.704;2022-08-24T11:57:14;4.00;;;1.93;;
2860;SDS011;1438;50.922;6.704;2022-08-24T11:59:56;2.57;;;1.53;;
2860;SDS011;1438;50.922;6.704;2022-08-24T12:05:27;4.23;;;2.00;;
2860;SDS011;1438;50.922;6.704;2022-08-24T12:08:14;5.10;;;1.90;;
2860;SDS011;1438;50.922;6.704;2022-08-24T12:19:10;6.20;;;1.90;;
2860;SDS011;1438;50.922;6.704;2022-08-24T12:21:38;5.63;;;2.30;;
2860;SDS011;1438;50.922;6.704;2022-08-24T12:24:17;3.03;;;2.23;;
2860;SDS011;1438;50.922;6.704;2022-08-24T12:26:51;5.53;;;2.53;;
2860;SDS011;1438;50.922;6.704;2022-08-24T12:29:22;3.43;;;2.10;;
2860;SDS011;1438;50.922;6.704;2022-08-24T12:31:56;7.57;;;2.30;;
2860;SDS011;1438;50.922;6.704;2022-08-24T12:34:51;10.63;;;2.03;;
2860;SDS011;1438;50.922;6.704;2022-08-24T12:45:33;6.53;;;2.70;;
2860;SDS011;1438;50.922;6.704;2022-08-24T12:48:13;3.93;;;2.10;;
2860;SDS011;1438;50.922;6.704;2022-08-24T13:01:40;3.67;;;2.63;;
2860;SDS011;1438;50.922;6.704;2022-08-24T13:04:11;3.27;;;2.57;;
2860;SDS011;1438;50.922;6.704;2022-08-24T13:06:48;3.37;;;2.00;;
2860;SDS011;1438;50.922;6.704;2022-08-24T13:09:28;3.60;;;2.00;;
2860;SDS011;1438;50.922;6.704;2022-08-24T13:11:59;4.40;;;2.07;;
2860;SDS011;1438;50.922;6.704;2022-08-24T13:35:57;6.80;;;2.03;;
2860;SDS011;1438;50.922;6.704;2022-08-24T13:43:37;2.57;;;2.37;;
2860;SDS011;1438;50.922;6.704;2022-08-24T13:46:16;3.30;;;2.27;;
2860;SDS011;1438;50.922;6.704;2022-08-24T13:49:16;3.40;;;1.87;;
2860;SDS011;1438;50.922;6.704;2022-08-24T13:57:35;7.07;;;2.00;;
2860;SDS011;1438;50.922;6.704;2022-08-24T14:18:07;3.40;;;1.90;;
2860;SDS011;1438;50.922;6.704;2022-08-24T14:37:22;4.07;;;2.37;;
2860;SDS011;1438;50.922;6.704;2022-08-24T14:42:51;2.80;;;2.07;;
2860;SDS011;1438;50.922;6.704;2022-08-24T15:08:04;2.20;;;2.00;;
2860;SDS011;1438;50.922;6.704;2022-08-24T15:10:34;5.20;;;2.23;;
2860;SDS011;1438;50.922;6.704;2022-08-24T15:14:00;2.90;;;1.70;;
2860;SDS011;1438;50.922;6.704;2022-08-24T15:16:11;4.37;;;2.53;;
2860;SDS011;1438;50.922;6.704;2022-08-24T15:21:22;2.33;;;1.70;;
2860;SDS011;1438;50.922;6.704;2022-08-24T15:27:17;4.03;;;2.50;;
2860;SDS011;1438;50.922;6.704;2022-08-24T15:29:54;2.70;;;2.13;;
2860;SDS011;1438;50.922;6.704;2022-08-24T15:32:40;2.87;;;1.83;;
2860;SDS011;1438;50.922;6.704;2022-08-24T15:35:24;2.53;;;2.10;;
2860;SDS011;1438;50.922;6.704;2022-08-24T15:37:57;5.43;;;2.40;;
2860;SDS011;1438;50.922;6.704;2022-08-24T15:40:39;4.37;;;2.07;;
2860;SDS011;1438;50.922;6.704;2022-08-24T15:43:05;2.83;;;2.07;;
2860;SDS011;1438;50.922;6.704;2022-08-24T15:45:31;2.57;;;2.30;;
2860;SDS011;1438;50.922;6.704;2022-08-24T15:47:58;3.20;;;2.37;;
2860;SDS011;1438;50.922;6.704;2022-08-24T15:53:06;2.20;;;2.00;;
2860;SDS011;1438;50.922;6.704;2022-08-24T15:55:49;7.20;;;2.90;;
2860;SDS011;1438;50.922;6.704;2022-08-24T15:58:32;2.30;;;2.00;;
2860;SDS011;1438;50.922;6.704;2022-08-24T16:03:54;3.50;;;2.33;;
2860;SDS011;1438;50.922;6.704;2022-08-24T16:09:12;2.90;;;2.47;;
2860;SDS011;1438;50.922;6.704;2022-08-24T16:14:28;3.17;;;2.50;;
2860;SDS011;1438;50.922;6.704;2022-08-24T16:17:16;3.73;;;3.07;;
2860;SDS011;1438;50.922;6.704;2022-08-24T16:19:49;2.70;;;2.30;;
2860;SDS011;1438;50.922;6.704;2022-08-24T16:22:26;2.97;;;2.47;;
2860;SDS011;1438;50.922;6.704;2022-08-24T16:27:53;2.43;;;2.23;;
2860;SDS011;1438;50.922;6.704;2022-08-24T16:30:42;2.60;;;2.40;;
2860;SDS011;1438;50.922;6.704;2022-08-24T16:33:08;4.23;;;2.83;;
2860;SDS011;1438;50.922;6.704;2022-08-24T16:35:35;2.90;;;2.60;;
2860;SDS011;1438;50.922;6.704;2022-08-24T16:38:00;4.07;;;2.50;;
2860;SDS011;1438;50.922;6.704;2022-08-24T16:40:27;4.67;;;2.20;;
2860;SDS011;1438;50.922;6.704;2022-08-24T16:42:55;4.40;;;2.50;;
2860;SDS011;1438;50.922;6.704;2022-08-24T16:45:21;3.70;;;2.80;;
2860;SDS011;1438;50.922;6.704;2022-08-24T16:47:47;3.97;;;2.63;;
2860;SDS011;1438;50.922;6.704;2022-08-24T16:50:15;4.70;;;2.10;;
2860;SDS011;1438;50.922;6.704;2022-08-24T16:52:42;3.43;;;2.30;;
2860;SDS011;1438;50.922;6.704;2022-08-24T16:55:11;4.77;;;2.50;;
2860;SDS011;1438;50.922;6.704;2022-08-24T16:57:37;6.20;;;2.30;;
2860;SDS011;1438;50.922;6.704;2022-08-24T17:00:04;2.30;;;2.10;;
2860;SDS011;1438;50.922;6.704;2022-08-24T17:02:33;2.53;;;1.87;;
2860;SDS011;1438;50.922;6.704;2022-08-24T17:04:59;3.77;;;2.13;;
2860;SDS011;1438;50.922;6.704;2022-08-24T17:07:26;11.90;;;3.10;;
2860;SDS011;1438;50.922;6.704;2022-08-24T17:09:54;8.33;;;2.03;;
2860;SDS011;1438;50.922;6.704;2022-08-24T17:12:21;2.70;;;2.20;;
2860;SDS011;1438;50.922;6.704;2022-08-24T17:14:47;5.57;;;2.60;;
2860;SDS011;1438;50.922;6.704;2022-08-24T17:17:17;4.03;;;2.53;;
2860;SDS011;1438;50.922;6.704;2022-08-24T17:19:55;6.57;;;2.50;;
2860;SDS011;1438;50.922;6.704;2022-08-24T17:22:21;3.40;;;2.40;;
2860;SDS011;1438;50.922;6.704;2022-08-24T17:24:48;3.93;;;2.23;;
2860;SDS011;1438;50.922;6.704;2022-08-24T17:27:14;4.20;;;2.17;;
2860;SDS011;1438;50.922;6.704;2022-08-24T17:29:42;4.00;;;2.07;;
2860;SDS011;1438;50.922;6.704;2022-08-24T17:32:09;2.90;;;2.20;;
2860;SDS011;1438;50.922;6.704;2022-08-24T17:34:35;2.40;;;2.20;;
2860;SDS011;1438;50.922;6.704;2022-08-24T17:37:01;4.03;;;2.03;;
2860;SDS011;1438;50.922;6.704;2022-08-24T17:39:28;3.10;;;2.13;;
2860;SDS011;1438;50.922;6.704;2022-08-24T17:41:54;4.50;;;2.93;;
2860;SDS011;1438;50.922;6.704;2022-08-24T17:44:26;3.17;;;2.80;;
2860;SDS011;1438;50.922;6.704;2022-08-24T17:47:00;2.67;;;2.47;;
2860;SDS011;1438;50.922;6.704;2022-08-24T17:49:27;2.93;;;2.60;;
2860;SDS011;1438;50.922;6.704;2022-08-24T17:51:55;3.30;;;2.23;;
2860;SDS011;1438;50.922;6.704;2022-08-24T17:54:22;5.93;;;2.30;;
2860;SDS011;1438;50.922;6.704;2022-08-24T17:56:49;5.20;;;2.23;;
2860;SDS011;1438;50.922;6.704;2022-08-24T17:59:16;3.83;;;2.43;;
2860;SDS011;1438;50.922;6.704;2022-08-24T18:02:14;6.67;;;2.40;;
2860;SDS011;1438;50.922;6.704;2022-08-24T18:04:41;4.80;;;2.50;;
2860;SDS011;1438;50.922;6.704;2022-08-24T18:07:08;4.17;;;2.30;;
2860;SDS011;1438;50.922;6.704;2022-08-24T18:09:37;4.20;;;2.13;;
2860;SDS011;1438;50.922;6.704;2022-08-24T18:12:13;4.90;;;2.50;;
2860;SDS011;1438;50.922;6.704;2022-08-24T18:14:40;4.20;;;2.43;;
2860;SDS011;1438;50.922;6.704;2022-08-24T18:17:08;5.47;;;2.40;;
2860;SDS011;1438;50.922;6.704;2022-08-24T18:19:36;3.57;;;2.30;;
2860;SDS011;1438;50.922;6.704;2022-08-24T18:22:03;5.67;;;2.50;;
2860;SDS011;1438;50.922;6.704;2022-08-24T18:24:30;5.30;;;2.57;;
2860;SDS011;1438;50.922;6.704;2022-08-24T18:27:04;10.00;;;2.70;;
2860;SDS011;1438;50.922;6.704;2022-08-24T18:29:31;4.33;;;2.80;;
2860;SDS011;1438;50.922;6.704;2022-08-24T18:31:58;2.70;;;2.37;;
2860;SDS011;1438;50.922;6.704;2022-08-24T18:34:24;4.27;;;2.60;;
2860;SDS011;1438;50.922;6.704;2022-08-24T18:36:50;5.20;;;4.70;;
2860;SDS011;1438;50.922;6.704;2022-08-24T18:39:17;4.37;;;3.40;;
2860;SDS011;1438;50.922;6.704;2022-08-24T18:41:44;3.50;;;2.50;;
2860;SDS011;1438;50.922;6.704;2022-08-24T18:44:14;3.60;;;2.50;;
2860;SDS011;1438;50.922;6.704;2022-08-24T18:46:46;2.80;;;2.30;;
2860;SDS011;1438;50.922;6.704;2022-08-24T18:49:12;3.20;;;2.43;;
2860;SDS011;1438;50.922;6.704;2022-08-24T18:51:41;5.00;;;2.30;;
2860;SDS011;1438;50.922;6.704;2022-08-24T18:54:09;4.67;;;2.33;;
2860;SDS011;1438;50.922;6.704;2022-08-24T18:56:37;4.00;;;2.20;;
2860;SDS011;1438;50.922;6.704;2022-08-24T18:59:03;2.77;;;1.67;;
2860;SDS011;1438;50.922;6.704;2022-08-24T19:01:29;5.20;;;2.37;;
2860;SDS011;1438;50.922;6.704;2022-08-24T19:04:17;2.57;;;2.20;;
2860;SDS011;1438;50.922;6.704;2022-08-24T19:06:43;4.17;;;2.83;;
2860;SDS011;1438;50.922;6.704;2022-08-24T19:09:08;2.47;;;2.00;;
2860;SDS011;1438;50.922;6.704;2022-08-24T19:11:34;2.83;;;2.33;;
2860;SDS011;1438;50.922;6.704;2022-08-24T19:14:00;5.33;;;2.40;;
2860;SDS011;1438;50.922;6.704;2022-08-24T19:16:26;6.17;;;2.83;;
2860;SDS011;1438;50.922;6.704;2022-08-24T19:18:51;5.30;;;2.60;;
2860;SDS011;1438;50.922;6.704;2022-08-24T19:21:17;4.33;;;2.37;;
2860;SDS011;1438;50.922;6.704;2022-08-24T19:23:43;10.40;;;2.27;;
2860;SDS011;1438;50.922;6.704;2022-08-24T19:26:10;3.13;;;2.10;;
2860;SDS011;1438;50.922;6.704;2022-08-24T19:28:36;7.60;;;2.70;;
2860;SDS011;1438;50.922;6.704;2022-08-24T19:31:02;6.37;;;3.13;;
2860;SDS011;1438;50.922;6.704;2022-08-24T19:33:36;4.60;;;2.30;;
2860;SDS011;1438;50.922;6.704;2022-08-24T19:36:05;3.87;;;2.30;;
2860;SDS011;1438;50.922;6.704;2022-08-24T19:38:31;3.30;;;2.47;;
2860;SDS011;1438;50.922;6.704;2022-08-24T19:40:57;3.43;;;2.20;;
2860;SDS011;1438;50.922;6.704;2022-08-24T19:43:24;5.00;;;2.90;;
2860;SDS011;1438;50.922;6.704;2022-08-24T19:45:52;4.20;;;2.37;;
2860;SDS011;1438;50.922;6.704;2022-08-24T19:48:32;3.50;;;2.80;;
2860;SDS011;1438;50.922;6.704;2022-08-24T19:51:01;6.43;;;2.73;;